Aérodrome :
LOGIN :

S'inscrire | Disclaimer

   EN    FR    IT 

 










Légende :    VFR   VFR Marginal   IFR   IFR Intensif   IFR Très Intensif
Visi : 
Plafond : 
>= 8 km
>= 3000ft
5 à 8 km
1000 à 3000 ft
1500m à 5 km
500 à 1000 ft
800 à 1500m
200 à 500 ft
< 800m
< 200 ft
Symboles :   Orages  Brouillard  Fortes neiges  Fortes précipitations  Vent > 20 kt
SIGMETs :   Divers  Orages  Givrage  Turbulence  Onde Orograph.  Cendres Volcan.







- Altitude de l'aérodrome : 2265 ft
- Code IATA : CZL


DABC - Mohamed Boudiaf Int. Constantine

DERNIER METAR :
  • 250100Z 00000KT CAVOK 07/05 Q1022

METARs EXPIRÉS :
  • 250030Z 00000KT CAVOK 07/05 Q1023
  • 250000Z VRB01KT CAVOK 07/05 Q1023
  • 242330Z 31002KT CAVOK 08/06 Q1023
  • 242300Z 00000KT CAVOK 08/06 Q1023
  • 242230Z 13001KT CAVOK 08/06 Q1023

TAF TAF DABC
Valide du 25 à 00h jusqu'au 26 à 00h UTC


242300Z 2500/2524 24008KT 8000 FEW023
PROB30
TEMPO 2500/2508 2000 BR BKN010
BECMG 2510/2512 32012KT
PROB30
TEMPO 2510/2518 FEW020TCU
PROB30
TEMPO 2512/2518 5000 -RA
Pas de NOTAMs connus pour ce terrain.



MET'MAP, la Météo Aéronautique d'un coup d'oeil ! - Copyright ORBIFLY Décembre 2007 - Disclaimer

ORBIFLY MET'MAP TEAM :

Programmation & Développement : Alexandra Zaïnal
Conception & Développement : Baudouin d'Aumeries
Co-Programmation & Développement : Marc-Olivier Méhu
Soutien technique & logistique : Manuel Goepfert

Contact : metmap@orbifly.com




SOURCES & CREDITS :

   NOAA